• Join FlightAware (Why Join?)
  • Login
  • US Flag 
02:00AM EDT


 

Airport Tracker/Info


-or-


 

Live Flight TrackerFlight Track Log ✈ ASA232 ✈ 02-May-2012 ✈ KSAN - MMSD / SJD

Flight Track Log - Related Links

Times and Time Zones

All times are in EDT time to prevent confusion due to time zone crossing. See the ASA232 flight status page for this flight to view local times or setup timezone preferences in your user account.

Time Position Orientation Groundspeed Altitude Reporting Facility
EDT Latitude Longitude Course Direction KTS MPH feet Rate Location/Type
01:18PM 32.7500 -117.2500 253° West 201 231 2,400  Level Southern California TRACON
01:19PM 32.7333 -117.3167 162° South 228 262 5,000 2,700 Climbing Southern California TRACON
01:20PM 32.5964 -117.2650 149° Southeast 296 341 10,300 2,340 Climbing Los Angeles Center
01:21PM 32.5175 -117.2097 141° Southeast 309 356 11,800 1,500 Climbing Los Angeles Center
01:29PM 31.9232 -116.6423 157° South  Level FlightAware Approximate
01:30PM 31.8219 -116.5922 142° Southeast  Level FlightAware Approximate
01:31PM 31.7348 -116.5132 169° South  Level FlightAware Approximate
01:32PM 31.6296 -116.4898 160° South  Level FlightAware Approximate
01:33PM 31.5265 -116.4447 158° South  Level FlightAware Approximate
01:34PM 31.4248 -116.3957 140° Southeast  Level FlightAware Approximate
01:35PM 31.3400 -116.3138 141° Southeast  Level FlightAware Approximate
01:36PM 31.2550 -116.2320 193° South  Level FlightAware Approximate
01:37PM 31.1510 -116.2596 139° Southeast  Level FlightAware Approximate
01:38PM 31.0685 -116.1747 179° South  Level FlightAware Approximate
01:39PM 30.9607 -116.1724 136° Southeast  Level FlightAware Approximate
01:40PM 30.8815 -116.0834 136° Southeast  Level FlightAware Approximate
01:41PM 30.8022 -115.9946 136° Southeast  Level FlightAware Approximate
01:42PM 30.7229 -115.9060 136° Southeast  Level FlightAware Approximate
01:43PM 30.6435 -115.8175 136° Southeast  Level FlightAware Approximate
01:44PM 30.5641 -115.7291 136° Southeast  Level FlightAware Approximate
01:45PM 30.4846 -115.6409 136° Southeast  Level FlightAware Approximate
01:46PM 30.4050 -115.5529 136° Southeast  Level FlightAware Approximate
01:47PM 30.3253 -115.4649 136° Southeast  Level FlightAware Approximate
01:48PM 30.2457 -115.3772 136° Southeast  Level FlightAware Approximate
01:49PM 30.1659 -115.2895 136° Southeast  Level FlightAware Approximate
01:50PM 30.0861 -115.2020 137° Southeast  Level FlightAware Approximate
01:51PM 30.0063 -115.1147 137° Southeast  Level FlightAware Approximate
01:52PM 29.9263 -115.0275 137° Southeast  Level FlightAware Approximate
01:53PM 29.8463 -114.9404 137° Southeast  Level FlightAware Approximate
01:54PM 29.7663 -114.8534 137° Southeast  Level FlightAware Approximate
01:55PM 29.6862 -114.7666 137° Southeast  Level FlightAware Approximate
01:56PM 29.6061 -114.6800 137° Southeast  Level FlightAware Approximate
01:57PM 29.5259 -114.5935 140° Southeast  Level FlightAware Approximate
01:58PM 29.4414 -114.5126 140° Southeast  Level FlightAware Approximate
01:59PM 29.3568 -114.4319 140° Southeast  Level FlightAware Approximate
02:00PM 29.2722 -114.3513 140° Southeast  Level FlightAware Approximate
02:01PM 29.1875 -114.2709 140° Southeast  Level FlightAware Approximate
02:02PM 29.1028 -114.1906 140° Southeast  Level FlightAware Approximate
02:03PM 29.0180 -114.1104 152° Southeast  Level FlightAware Approximate
02:04PM 28.9228 -114.0531 140° Southeast  Level FlightAware Approximate
02:05PM 28.8384 -113.9726 131° Southeast  Level FlightAware Approximate
02:06PM 28.7660 -113.8785 137° Southeast  Level FlightAware Approximate
02:07PM 28.6860 -113.7924 137° Southeast  Level FlightAware Approximate
02:08PM 28.6059 -113.7065 137° Southeast  Level FlightAware Approximate
02:09PM 28.5258 -113.6207 137° Southeast  Level FlightAware Approximate
02:10PM 28.4456 -113.5350 137° Southeast  Level FlightAware Approximate
02:11PM 28.3654 -113.4495 137° Southeast  Level FlightAware Approximate
02:12PM 28.2852 -113.3641 137° Southeast  Level FlightAware Approximate
02:13PM 28.2048 -113.2788 137° Southeast  Level FlightAware Approximate
02:14PM 28.1245 -113.1936 137° Southeast  Level FlightAware Approximate
02:15PM 28.0440 -113.1086 137° Southeast  Level FlightAware Approximate
02:16PM 27.9635 -113.0237 137° Southeast  Level FlightAware Approximate
02:17PM 27.8830 -112.9389 137° Southeast  Level FlightAware Approximate
02:18PM 27.8024 -112.8543 137° Southeast  Level FlightAware Approximate
02:19PM 27.7218 -112.7698 137° Southeast  Level FlightAware Approximate
02:20PM 27.6411 -112.6854 137° Southeast  Level FlightAware Approximate
02:21PM 27.5603 -112.6011 137° Southeast  Level FlightAware Approximate
02:22PM 27.4795 -112.5170 137° Southeast  Level FlightAware Approximate
02:23PM 27.3987 -112.4329 137° Southeast  Level FlightAware Approximate
02:24PM 27.3178 -112.3490 118° Southeast  Level FlightAware Approximate
02:25PM 27.2702 -112.2468 138° Southeast  Level FlightAware Approximate
02:26PM 27.1884 -112.1641 160° South  Level FlightAware Approximate
02:27PM 27.0896 -112.1236 148° Southeast  Level FlightAware Approximate
02:28PM 26.9960 -112.0588 148° Southeast  Level FlightAware Approximate
02:29PM 26.9023 -111.9942 148° Southeast  Level FlightAware Approximate
02:30PM 26.8086 -111.9296 148° Southeast  Level FlightAware Approximate
02:31PM 26.7149 -111.8652 148° Southeast  Level FlightAware Approximate
02:32PM 26.6211 -111.8008 148° Southeast  Level FlightAware Approximate
02:33PM 26.5273 -111.7365 149° Southeast  Level FlightAware Approximate
02:34PM 26.4335 -111.6724 149° Southeast  Level FlightAware Approximate
02:35PM 26.3397 -111.6084 149° Southeast  Level FlightAware Approximate
02:36PM 26.2458 -111.5444 149° Southeast  Level FlightAware Approximate
02:37PM 26.1520 -111.4806 149° Southeast  Level FlightAware Approximate
02:38PM 26.0580 -111.4169 149° Southeast  Level FlightAware Approximate
02:39PM 25.9641 -111.3533 122° Southeast  Level FlightAware Approximate
02:40PM 25.9081 -111.2546 152° Southeast  Level FlightAware Approximate
02:41PM 25.8110 -111.1972 152° Southeast  Level FlightAware Approximate
02:42PM 25.7139 -111.1399 152° Southeast  Level FlightAware Approximate
02:43PM 25.6168 -111.0826 152° Southeast  Level FlightAware Approximate
02:44PM 25.5196 -111.0255 152° Southeast  Level FlightAware Approximate
02:45PM 25.4225 -110.9684 152° Southeast  Level FlightAware Approximate
02:46PM 25.3253 -110.9114 152° Southeast  Level FlightAware Approximate
02:47PM 25.2281 -110.8546 152° Southeast  Level FlightAware Approximate
02:48PM 25.1308 -110.7978 152° Southeast  Level FlightAware Approximate
02:49PM 25.0336 -110.7411 152° Southeast  Level FlightAware Approximate
02:50PM 24.9363 -110.6845 152° Southeast  Level FlightAware Approximate
02:51PM 24.8390 -110.6280 152° Southeast  Level FlightAware Approximate
02:52PM 24.7417 -110.5715 152° Southeast  Level FlightAware Approximate
02:53PM 24.6443 -110.5152 152° Southeast  Level FlightAware Approximate
02:54PM 24.5470 -110.4589 152° Southeast  Level FlightAware Approximate
02:55PM 24.4496 -110.4028 152° Southeast  Level FlightAware Approximate
02:56PM 24.3522 -110.3467 152° Southeast  Level FlightAware Approximate
02:57PM 24.2547 -110.2907 152° Southeast  Level FlightAware Approximate
02:58PM 24.1573 -110.2348 152° Southeast  Level FlightAware Approximate
02:59PM 24.0598 -110.1790 152° Southeast  Level FlightAware Approximate
03:00PM 23.9623 -110.1232 152° Southeast  Level FlightAware Approximate
03:01PM 23.8648 -110.0676 152° Southeast  Level FlightAware Approximate
03:02PM 23.7673 -110.0120 152° Southeast  Level FlightAware Approximate
03:03PM 23.6698 -109.9565 153° Southeast  Level FlightAware Approximate
03:04PM 23.5722 -109.9011 153° Southeast  Level FlightAware Approximate
03:05PM 23.4746 -109.8458 153° Southeast  Level FlightAware Approximate
03:06PM 23.3770 -109.7905 153° Southeast  Level FlightAware Approximate
03:07PM 23.2794 -109.7354 166° South  Level FlightAware Approximate
03:08PM 23.1780 -109.7077 205° Southwest  Level FlightAware Approximate
03:09PM 23.0784 -109.7585 35° Northeast  Level Estimated
03:10PM 23.1333 -109.7167 348° North  Level FlightAware Approximate
03:11PM 23.2408 -109.7421 168° South  Level Estimated
03:12PM 23.1333 -109.7167 348° North  Level FlightAware Approximate
03:13PM 23.2408 -109.7421 168° South  Level Estimated
03:14PM 23.1333 -109.7167 348° North  Level FlightAware Approximate
03:15PM 23.2408 -109.7421 168° South  Level Estimated
03:16PM 23.1333 -109.7167 348° North  Level FlightAware Approximate
03:17PM 23.2408 -109.7421 168° South  Level Estimated
03:18PM 23.1333 -109.7167 348° North  Level FlightAware Approximate
03:19PM 23.2408 -109.7421 168° South  Level Estimated
03:20PM 23.1333 -109.7167 348° North  Level FlightAware Approximate
03:21PM 23.2408 -109.7421 168° South  Level Estimated
03:22PM 23.1333 -109.7167 348° North  Level FlightAware Approximate
03:23PM 23.2408 -109.7421 168° South  Level Estimated
03:24PM 23.1333 -109.7167 168° South  Level FlightAware Approximate